Time;durP1;ratioP1;P1;durP2;ratioP2;P2;SDS_P1;SDS_P2;PMS_P1;PMS_P2;Temp;Humidity;BMP_temperature;BMP_pressure;BME280_temperature;BME280_humidity;BME280_pressure;Samples;Min_cycle;Max_cycle;Signal;HPM_P1;HPM_P2
2021/06/07 00:00:44;;;;;;;4.15;2.70;;;;;;;;;;6090153;23;20649;-89
2021/06/07 00:03:50;;;;;;;4.95;2.72;;;;;;;;;;6088968;23;20617;-89
2021/06/07 00:06:57;;;;;;;5.85;2.88;;;;;;;;;;6089343;23;20250;-89
2021/06/07 00:10:02;;;;;;;3.08;2.65;;;;;;;;;;6088523;23;20198;-88
2021/06/07 00:13:06;;;;;;;2.85;2.42;;;;;;;;;;6088884;23;20162;-89
2021/06/07 00:16:11;;;;;;;5.20;2.50;;;;;;;;;;6089437;23;20226;-89
2021/06/07 00:19:18;;;;;;;3.78;2.20;;;;;;;;;;6088880;23;20194;-89
2021/06/07 00:22:23;;;;;;;6.68;2.53;;;;;;;;;;6105769;23;20190;-88
2021/06/07 00:25:27;;;;;;;4.03;2.10;;;;;;;;;;6086862;23;20161;-89
2021/06/07 00:28:31;;;;;;;4.30;2.90;;;;;;;;;;6089831;23;20162;-91
2021/06/07 00:31:37;;;;;;;6.05;2.30;;;;;;;;;;6091476;23;20170;-88
2021/06/07 00:34:43;;;;;;;3.45;2.28;;;;;;;;;;6091519;23;20173;-88
2021/06/07 00:37:47;;;;;;;5.97;2.63;;;;;;;;;;6090863;23;20174;-89
2021/06/07 00:40:52;;;;;;;4.05;2.15;;;;;;;;;;6093759;23;20192;-86
2021/06/07 00:43:57;;;;;;;3.60;2.40;;;;;;;;;;6090452;23;20170;-91
2021/06/07 00:47:02;;;;;;;8.32;2.45;;;;;;;;;;6090661;23;20271;-89
2021/06/07 00:50:12;;;;;;;3.63;1.95;;;;;;;;;;6092361;23;20179;-89
2021/06/07 00:53:18;;;;;;;3.25;2.22;;;;;;;;;;6091229;23;20170;-88
2021/06/07 00:56:23;;;;;;;4.85;2.20;;;;;;;;;;6091056;23;20182;-89
2021/06/07 00:59:27;;;;;;;5.72;2.25;;;;;;;;;;6089139;23;20640;-90
2021/06/07 01:02:31;;;;;;;2.35;1.95;;;;;;;;;;6089745;23;20178;-90
2021/06/07 01:05:37;;;;;;;5.70;2.30;;;;;;;;;;6090958;23;20201;-88
2021/06/07 01:08:42;;;;;;;4.45;2.67;;;;;;;;;;6093214;23;20285;-90
2021/06/07 01:11:47;;;;;;;2.40;2.20;;;;;;;;;;6106901;23;20503;-87
2021/06/07 01:14:53;;;;;;;6.03;2.72;;;;;;;;;;6107804;23;20277;-89
2021/06/07 01:17:57;;;;;;;5.60;2.60;;;;;;;;;;6106577;23;20222;-86
2021/06/07 01:21:09;;;;;;;7.28;2.63;;;;;;;;;;6107115;23;20238;-90
2021/06/07 01:24:14;;;;;;;2.60;2.05;;;;;;;;;;6107089;23;20194;-86
2021/06/07 01:27:19;;;;;;;3.47;2.63;;;;;;;;;;6106377;23;20186;-89
2021/06/07 01:30:25;;;;;;;10.00;2.47;;;;;;;;;;6107246;23;20628;-88
2021/06/07 01:33:30;;;;;;;5.60;2.50;;;;;;;;;;6104477;23;20195;-89
2021/06/07 01:36:35;;;;;;;4.25;2.17;;;;;;;;;;6107146;23;20174;-89
2021/06/07 01:39:41;;;;;;;4.85;2.45;;;;;;;;;;6106603;23;20193;-89
2021/06/07 01:42:45;;;;;;;8.63;2.10;;;;;;;;;;6104597;23;20183;-88
2021/06/07 01:45:50;;;;;;;4.65;2.10;;;;;;;;;;6105547;23;20198;-88
2021/06/07 01:48:55;;;;;;;5.28;2.90;;;;;;;;;;6105688;23;20223;-89
2021/06/07 01:51:59;;;;;;;3.03;2.20;;;;;;;;;;6104268;23;20177;-88
2021/06/07 01:55:06;;;;;;;4.50;2.60;;;;;;;;;;6104796;23;20638;-89
2021/06/07 01:58:11;;;;;;;6.78;2.10;;;;;;;;;;6104343;23;20174;-89
2021/06/07 02:01:17;;;;;;;4.45;2.60;;;;;;;;;;6105673;23;20248;-89
2021/06/07 02:04:21;;;;;;;6.30;2.17;;;;;;;;;;6106801;23;20229;-88
2021/06/07 02:07:26;;;;;;;4.53;2.30;;;;;;;;;;6103223;23;20296;-88
2021/06/07 02:10:33;;;;;;;3.65;2.30;;;;;;;;;;6106291;23;20178;-88
2021/06/07 02:13:37;;;;;;;3.08;2.20;;;;;;;;;;6105792;23;20174;-89
2021/06/07 02:16:42;;;;;;;8.40;2.72;;;;;;;;;;6106101;23;20182;-89
2021/06/07 02:19:47;;;;;;;5.05;2.35;;;;;;;;;;6105557;23;20218;-89
2021/06/07 02:22:52;;;;;;;7.32;2.38;;;;;;;;;;6105722;23;20170;-88
2021/06/07 02:25:58;;;;;;;4.80;2.47;;;;;;;;;;6104916;23;20228;-89
2021/06/07 02:29:04;;;;;;;3.22;2.40;;;;;;;;;;6105604;23;20173;-89
2021/06/07 02:32:09;;;;;;;3.90;2.95;;;;;;;;;;6104982;23;20222;-89
2021/06/07 02:35:15;;;;;;;5.90;2.30;;;;;;;;;;6106825;23;20178;-90
2021/06/07 02:38:20;;;;;;;3.42;2.28;;;;;;;;;;6106690;23;20170;-88
2021/06/07 02:41:26;;;;;;;2.72;2.13;;;;;;;;;;6105946;23;20190;-89
2021/06/07 02:44:31;;;;;;;7.75;2.97;;;;;;;;;;6107691;23;20182;-88
2021/06/07 02:47:35;;;;;;;6.32;2.22;;;;;;;;;;6108142;23;20246;-87
2021/06/07 02:50:41;;;;;;;3.35;2.33;;;;;;;;;;6111251;23;20199;-87
2021/06/07 02:53:48;;;;;;;3.70;2.00;;;;;;;;;;6106019;23;20173;-88
2021/06/07 02:56:54;;;;;;;8.50;2.28;;;;;;;;;;6105603;23;20312;-89
2021/06/07 02:59:59;;;;;;;4.70;2.20;;;;;;;;;;6106016;23;20270;-89
2021/06/07 03:03:03;;;;;;;3.25;2.50;;;;;;;;;;6106021;23;20169;-89
2021/06/07 03:06:08;;;;;;;5.70;2.60;;;;;;;;;;6105747;23;20233;-88
2021/06/07 03:09:12;;;;;;;5.18;2.20;;;;;;;;;;6106545;23;20660;-89
2021/06/07 03:12:18;;;;;;;6.45;2.30;;;;;;;;;;6087737;23;20170;-88
2021/06/07 03:15:23;;;;;;;4.93;2.58;;;;;;;;;;6088041;23;20190;-88
2021/06/07 03:18:28;;;;;;;4.53;2.30;;;;;;;;;;6089928;23;20243;-88
2021/06/07 03:21:32;;;;;;;4.15;2.28;;;;;;;;;;6089428;23;20268;-88
2021/06/07 03:24:38;;;;;;;8.73;2.63;;;;;;;;;;6088975;23;20169;-89
2021/06/07 03:27:44;;;;;;;4.13;2.50;;;;;;;;;;6088915;23;20290;-88
2021/06/07 03:30:50;;;;;;;4.50;2.30;;;;;;;;;;6088915;23;20169;-89
2021/06/07 03:33:55;;;;;;;11.65;2.90;;;;;;;;;;6087717;23;20297;-88
2021/06/07 03:37:00;;;;;;;5.10;2.78;;;;;;;;;;6089747;23;20173;-88
2021/06/07 03:40:06;;;;;;;6.38;2.70;;;;;;;;;;6106446;23;20205;-89
2021/06/07 03:43:12;;;;;;;5.40;2.30;;;;;;;;;;6088865;23;20550;-87
2021/06/07 03:46:16;;;;;;;4.18;2.17;;;;;;;;;;6090258;23;20240;-88
2021/06/07 03:49:21;;;;;;;6.70;2.70;;;;;;;;;;6089980;23;20173;-89
2021/06/07 03:52:25;;;;;;;3.75;2.47;;;;;;;;;;6088664;23;20164;-88
2021/06/07 03:55:29;;;;;;;9.85;3.70;;;;;;;;;;6090098;23;20178;-89
2021/06/07 03:58:35;;;;;;;4.68;2.83;;;;;;;;;;6091786;23;20215;-88
2021/06/07 04:01:42;;;;;;;6.50;2.60;;;;;;;;;;6090595;23;20181;-89
2021/06/07 04:04:46;;;;;;;10.45;2.45;;;;;;;;;;6087854;23;20174;-88
2021/06/07 04:07:52;;;;;;;5.68;2.22;;;;;;;;;;6087426;23;20201;-89
2021/06/07 04:10:56;;;;;;;7.53;2.70;;;;;;;;;;6089156;23;20227;-89
2021/06/07 04:14:02;;;;;;;8.38;2.50;;;;;;;;;;6088197;23;20222;-88
2021/06/07 04:17:06;;;;;;;14.10;5.32;;;;;;;;;;6087389;23;20193;-88
2021/06/07 04:20:12;;;;;;;4.93;3.08;;;;;;;;;;6087716;23;20193;-89
2021/06/07 04:23:16;;;;;;;5.45;2.80;;;;;;;;;;6087657;23;20174;-88
2021/06/07 04:26:21;;;;;;;8.88;3.70;;;;;;;;;;6089988;23;20193;-88
2021/06/07 04:29:28;;;;;;;6.22;4.07;;;;;;;;;;6089461;23;20562;-88
2021/06/07 04:32:33;;;;;;;11.00;4.20;;;;;;;;;;6089204;23;20178;-86
2021/06/07 04:35:37;;;;;;;13.52;5.40;;;;;;;;;;6089572;23;20170;-88
2021/06/07 04:38:42;;;;;;;15.85;4.75;;;;;;;;;;6091360;23;20169;-88
2021/06/07 04:41:47;;;;;;;8.38;5.00;;;;;;;;;;6088925;23;20187;-89
2021/06/07 04:44:53;;;;;;;12.90;5.10;;;;;;;;;;6090943;23;20191;-90
2021/06/07 04:47:58;;;;;;;10.82;5.20;;;;;;;;;;6090900;23;20174;-89
2021/06/07 04:51:02;;;;;;;10.23;5.82;;;;;;;;;;6091815;23;20170;-89
2021/06/07 04:54:07;;;;;;;8.55;5.00;;;;;;;;;;6090168;23;20174;-89
2021/06/07 04:57:12;;;;;;;8.45;5.72;;;;;;;;;;6090909;23;20162;-88
2021/06/07 05:00:21;;;;;;;9.73;5.60;;;;;;;;;;6096125;23;20274;-90
2021/06/07 05:03:30;;;;;;;8.52;5.22;;;;;;;;;;6097673;23;20174;-87
2021/06/07 05:06:35;;;;;;;11.00;5.50;;;;;;;;;;6096144;23;20174;-89
2021/06/07 05:09:40;;;;;;;10.85;5.63;;;;;;;;;;6107838;23;20197;-86
2021/06/07 05:12:45;;;;;;;9.00;5.43;;;;;;;;;;6109033;23;20162;-89
2021/06/07 05:15:53;;;;;;;16.25;5.97;;;;;;;;;;6109215;23;20232;-86
2021/06/07 05:18:59;;;;;;;12.07;5.75;;;;;;;;;;6115177;23;20173;-88
2021/06/07 05:22:05;;;;;;;20.13;6.57;;;;;;;;;;6108609;23;20298;-89
2021/06/07 05:25:10;;;;;;;11.38;5.55;;;;;;;;;;6108846;23;20227;-87
2021/06/07 05:28:16;;;;;;;10.73;5.55;;;;;;;;;;6109819;23;20249;-89
2021/06/07 05:31:24;;;;;;;11.30;5.38;;;;;;;;;;6111153;23;20174;-89
2021/06/07 05:34:29;;;;;;;7.72;4.97;;;;;;;;;;6109712;23;20173;-90
2021/06/07 05:37:35;;;;;;;8.88;5.47;;;;;;;;;;6111924;23;20526;-88
2021/06/07 05:40:44;;;;;;;8.90;5.28;;;;;;;;;;6107959;23;20334;-87
2021/06/07 05:43:49;;;;;;;9.15;5.25;;;;;;;;;;6109650;23;20217;-89
2021/06/07 05:46:55;;;;;;;7.47;5.50;;;;;;;;;;6112039;23;20165;-89
2021/06/07 05:49:59;;;;;;;9.23;6.35;;;;;;;;;;6111709;23;20174;-91
2021/06/07 05:53:05;;;;;;;10.02;6.28;;;;;;;;;;6110140;23;20222;-90
2021/06/07 05:56:09;;;;;;;10.30;6.43;;;;;;;;;;6108189;23;20170;-92
2021/06/07 05:59:14;;;;;;;9.75;6.65;;;;;;;;;;6112591;23;20158;-91
2021/06/07 06:02:23;;;;;;;11.38;6.80;;;;;;;;;;6114060;23;20182;-89
2021/06/07 06:08:51;;;;;;;9.30;6.05;;;;;;;;;;6110081;23;20193;-90
2021/06/07 06:11:56;;;;;;;9.32;6.18;;;;;;;;;;6108224;23;20198;-90
2021/06/07 06:15:01;;;;;;;8.70;6.28;;;;;;;;;;6110025;23;20182;-91
2021/06/07 06:18:07;;;;;;;7.63;6.10;;;;;;;;;;6110522;23;20194;-91
2021/06/07 06:21:12;;;;;;;7.65;6.13;;;;;;;;;;6110218;23;20220;-91
2021/06/07 06:24:17;;;;;;;9.20;5.85;;;;;;;;;;6108120;23;20169;-90
2021/06/07 06:27:22;;;;;;;10.35;6.10;;;;;;;;;;6107928;23;20170;-91
2021/06/07 06:30:29;;;;;;;13.32;7.85;;;;;;;;;;6112777;23;20178;-89
2021/06/07 06:33:35;;;;;;;8.25;6.40;;;;;;;;;;6109079;23;20215;-91
2021/06/07 06:36:40;;;;;;;8.95;5.97;;;;;;;;;;6109289;23;20197;-91
2021/06/07 06:39:46;;;;;;;7.15;5.00;;;;;;;;;;6110498;23;20222;-90
2021/06/07 06:42:51;;;;;;;8.10;5.03;;;;;;;;;;6107242;23;20238;-91
2021/06/07 06:45:55;;;;;;;5.57;4.57;;;;;;;;;;6108672;23;20225;-90
2021/06/07 06:49:02;;;;;;;7.20;4.72;;;;;;;;;;6113163;23;20201;-90
2021/06/07 06:52:07;;;;;;;9.02;4.60;;;;;;;;;;6111394;23;20213;-91
2021/06/07 06:55:12;;;;;;;6.47;3.88;;;;;;;;;;6109608;23;20170;-93
2021/06/07 08:26:18;;;;;;;9.15;3.80;;;;;;;;;;6164039;23;20208;-88
2021/06/07 08:29:22;;;;;;;5.40;3.78;;;;;;;;;;6196666;23;20172;-90
2021/06/07 08:32:27;;;;;;;4.95;3.42;;;;;;;;;;6193779;23;20218;-89
2021/06/07 08:35:31;;;;;;;5.82;4.25;;;;;;;;;;6177507;23;20171;-90
2021/06/07 08:38:36;;;;;;;8.77;4.35;;;;;;;;;;6195300;23;20176;-89
2021/06/07 08:41:41;;;;;;;4.30;3.70;;;;;;;;;;6194993;23;20195;-90
2021/06/07 08:44:46;;;;;;;4.72;3.65;;;;;;;;;;6194557;23;20179;-89
2021/06/07 08:47:52;;;;;;;6.93;3.47;;;;;;;;;;6196118;23;20237;-89
2021/06/07 08:51:00;;;;;;;4.20;3.60;;;;;;;;;;6196441;23;20175;-91
2021/06/07 08:54:05;;;;;;;7.50;3.33;;;;;;;;;;6179897;23;20622;-90
2021/06/07 08:57:10;;;;;;;5.88;3.65;;;;;;;;;;6198446;23;20220;-92
2021/06/07 09:00:18;;;;;;;4.00;2.88;;;;;;;;;;6197107;23;20179;-90
2021/06/07 09:03:28;;;;;;;4.30;3.00;;;;;;;;;;6203087;23;20166;-90
2021/06/07 10:22:51;;;;;;;5.60;3.78;;;;;;;;;;6116761;23;20263;-90
2021/06/07 10:25:58;;;;;;;6.50;3.80;;;;;;;;;;6158547;23;20236;-90
2021/06/07 10:29:02;;;;;;;8.50;3.45;;;;;;;;;;6170345;23;20614;-91
2021/06/07 10:32:08;;;;;;;4.05;3.60;;;;;;;;;;6152974;23;20241;-89
2021/06/07 10:35:13;;;;;;;4.63;3.47;;;;;;;;;;6167261;23;20191;-91
2021/06/07 10:38:29;;;;;;;5.35;3.63;;;;;;;;;;6169307;23;20252;-90
2021/06/07 10:41:34;;;;;;;4.82;2.95;;;;;;;;;;6168641;23;20339;-90
2021/06/07 10:44:39;;;;;;;7.38;3.75;;;;;;;;;;6167063;23;20176;-90
2021/06/07 10:47:45;;;;;;;5.70;3.15;;;;;;;;;;6168879;23;20176;-89
2021/06/07 11:49:30;;;;;;;7.20;4.18;;;;;;;;;;6102653;23;20197;-93
2021/06/07 11:52:49;;;;;;;7.18;4.10;;;;;;;;;;6166916;23;20224;-91
2021/06/07 13:38:35;;;;;;;15.18;5.43;;;;;;;;;;6168335;23;20319;-91
2021/06/07 13:41:52;;;;;;;17.38;6.35;;;;;;;;;;6166464;23;20193;-90
2021/06/07 13:44:57;;;;;;;14.75;7.45;;;;;;;;;;6167403;23;20313;-92
2021/06/07 13:51:31;;;;;;;27.65;9.52;;;;;;;;;;6091105;23;20181;-89
2021/06/07 13:54:52;;;;;;;17.25;7.70;;;;;;;;;;6094679;23;20186;-91
2021/06/07 13:58:05;;;;;;;9.65;6.15;;;;;;;;;;6093706;23;20193;-90
2021/06/07 14:01:11;;;;;;;11.10;7.10;;;;;;;;;;6112838;23;20186;-90
2021/06/07 14:04:16;;;;;;;15.52;8.43;;;;;;;;;;6093291;23;20173;-90
2021/06/07 14:07:20;;;;;;;16.02;8.93;;;;;;;;;;6090764;23;20218;-89
2021/06/07 14:10:26;;;;;;;14.85;9.55;;;;;;;;;;6092347;23;20192;-91
2021/06/07 14:13:32;;;;;;;19.73;8.82;;;;;;;;;;6090468;23;20289;-88
2021/06/07 14:16:37;;;;;;;15.43;8.68;;;;;;;;;;6091503;23;20598;-88
2021/06/07 14:19:42;;;;;;;17.20;9.43;;;;;;;;;;6093502;23;20161;-89
2021/06/07 14:26:16;;;;;;;14.27;9.45;;;;;;;;;;6094512;23;20174;-89
2021/06/07 14:29:20;;;;;;;16.58;10.35;;;;;;;;;;6093244;23;20263;-91
2021/06/07 14:32:25;;;;;;;17.98;9.82;;;;;;;;;;6090638;23;20162;-90
2021/06/07 14:35:32;;;;;;;17.88;8.80;;;;;;;;;;6092562;23;20186;-89
2021/06/07 14:38:36;;;;;;;20.77;8.95;;;;;;;;;;6090182;23;20181;-91
2021/06/07 14:41:42;;;;;;;17.95;8.00;;;;;;;;;;6089658;23;20193;-90
2021/06/07 14:44:46;;;;;;;15.15;8.50;;;;;;;;;;6089691;23;20177;-90
2021/06/07 14:47:51;;;;;;;12.60;7.80;;;;;;;;;;6089835;23;20174;-91
2021/06/07 14:50:56;;;;;;;13.38;7.50;;;;;;;;;;6094282;23;20173;-91
2021/06/07 14:54:01;;;;;;;12.18;7.68;;;;;;;;;;6091302;23;20201;-91
2021/06/07 14:57:07;;;;;;;11.68;7.10;;;;;;;;;;6090275;23;20177;-90
2021/06/07 15:00:17;;;;;;;15.27;7.05;;;;;;;;;;6093677;23;20161;-89
2021/06/07 15:03:22;;;;;;;8.98;6.00;;;;;;;;;;6091301;23;20198;-90
2021/06/07 15:06:27;;;;;;;12.30;6.25;;;;;;;;;;6088999;23;20246;-91
2021/06/07 15:09:31;;;;;;;10.73;6.15;;;;;;;;;;6093999;23;20166;-90
2021/06/07 15:12:38;;;;;;;11.45;6.80;;;;;;;;;;6094417;23;20225;-90
2021/06/07 15:15:43;;;;;;;9.73;6.30;;;;;;;;;;6092231;23;20158;-91
2021/06/07 15:18:47;;;;;;;13.60;6.05;;;;;;;;;;6109483;23;20212;-92
2021/06/07 15:21:52;;;;;;;11.68;6.32;;;;;;;;;;6092055;23;20202;-91
2021/06/07 15:24:57;;;;;;;11.93;6.57;;;;;;;;;;6093623;23;20170;-92
2021/06/07 15:28:03;;;;;;;10.13;5.80;;;;;;;;;;6090641;23;20173;-91
2021/06/07 15:31:08;;;;;;;9.07;6.43;;;;;;;;;;6092670;23;20177;-91
2021/06/07 15:34:13;;;;;;;16.40;6.90;;;;;;;;;;6092910;23;20222;-90
2021/06/07 15:37:17;;;;;;;12.45;7.00;;;;;;;;;;6094599;23;20233;-90
2021/06/07 15:40:22;;;;;;;13.75;6.03;;;;;;;;;;6097271;23;20178;-90
2021/06/07 15:43:30;;;;;;;9.80;6.05;;;;;;;;;;6094868;23;20268;-89
2021/06/07 15:46:43;;;;;;;10.10;5.97;;;;;;;;;;6094963;23;20218;-89
2021/06/07 15:49:49;;;;;;;10.13;6.00;;;;;;;;;;6096690;23;20193;-89
2021/06/07 15:52:56;;;;;;;9.70;6.28;;;;;;;;;;6096564;23;20205;-91
2021/06/07 15:56:04;;;;;;;16.02;6.28;;;;;;;;;;6097799;23;20169;-88
2021/06/07 15:59:20;;;;;;;11.73;7.18;;;;;;;;;;6101157;23;20190;-89
2021/06/07 16:02:25;;;;;;;12.93;6.68;;;;;;;;;;6096550;23;20254;-91
2021/06/07 16:05:31;;;;;;;15.63;6.57;;;;;;;;;;6096245;23;20153;-90
2021/06/07 16:08:36;;;;;;;8.15;5.82;;;;;;;;;;6096971;23;20174;-90
2021/06/07 16:11:41;;;;;;;11.40;6.63;;;;;;;;;;6096993;23;20491;-92
2021/06/07 16:14:47;;;;;;;11.88;6.28;;;;;;;;;;6095710;23;20543;-90
2021/06/07 16:17:54;;;;;;;16.83;7.00;;;;;;;;;;6092055;23;20205;-91
2021/06/07 16:21:15;;;;;;;16.85;7.00;;;;;;;;;;6092132;23;20196;-91
2021/06/07 16:24:19;;;;;;;13.73;7.22;;;;;;;;;;6091426;23;20173;-90
2021/06/07 16:27:25;;;;;;;11.85;6.32;;;;;;;;;;6091902;23;20241;-90
2021/06/07 16:30:32;;;;;;;8.43;5.88;;;;;;;;;;6090470;23;20169;-90
2021/06/07 16:33:36;;;;;;;10.93;6.00;;;;;;;;;;6096434;23;20157;-91
2021/06/07 16:36:43;;;;;;;12.07;6.10;;;;;;;;;;6100133;23;20181;-89
2021/06/07 16:39:49;;;;;;;10.95;6.05;;;;;;;;;;6099789;23;20204;-91
2021/06/07 16:42:54;;;;;;;9.95;6.35;;;;;;;;;;6099214;23;20173;-91
2021/06/07 16:46:04;;;;;;;14.85;6.82;;;;;;;;;;6096044;23;20247;-91
2021/06/07 16:49:09;;;;;;;10.45;6.60;;;;;;;;;;6101479;23;20271;-90
2021/06/07 16:52:14;;;;;;;12.05;6.53;;;;;;;;;;6096569;23;20170;-90
2021/06/07 16:55:19;;;;;;;10.88;6.45;;;;;;;;;;6095408;23;20177;-90
2021/06/07 16:58:24;;;;;;;12.93;6.47;;;;;;;;;;6091701;23;20302;-91
2021/06/07 17:01:38;;;;;;;12.07;6.80;;;;;;;;;;6092102;23;20212;-92
2021/06/07 17:04:42;;;;;;;11.52;6.05;;;;;;;;;;6095610;23;20194;-92
2021/06/07 17:08:03;;;;;;;10.85;5.75;;;;;;;;;;6095298;23;20174;-91
2021/06/07 17:14:37;;;;;;;12.20;7.30;;;;;;;;;;6102629;23;20166;-91
2021/06/07 17:17:44;;;;;;;12.15;6.75;;;;;;;;;;6104049;23;20177;-89
2021/06/07 17:20:51;;;;;;;10.57;6.90;;;;;;;;;;6085005;23;20241;-92
2021/06/07 17:28:16;;;;;;;15.55;6.82;;;;;;;;;;6118347;23;20150;-91
2021/06/07 17:31:22;;;;;;;13.68;6.95;;;;;;;;;;6096437;23;20174;-91
2021/06/07 17:34:28;;;;;;;10.18;6.75;;;;;;;;;;6095740;23;20178;-90
2021/06/07 17:37:33;;;;;;;9.93;6.47;;;;;;;;;;6093986;23;20174;-90
2021/06/07 17:40:38;;;;;;;14.00;6.40;;;;;;;;;;6095496;23;20222;-90
2021/06/07 17:43:43;;;;;;;12.88;7.00;;;;;;;;;;6093189;23;20198;-92
2021/06/07 17:46:47;;;;;;;11.15;6.70;;;;;;;;;;6091714;23;20166;-91
2021/06/07 17:49:55;;;;;;;12.70;6.50;;;;;;;;;;6093470;23;20189;-92
2021/06/07 17:53:00;;;;;;;11.38;6.38;;;;;;;;;;6094318;23;20181;-91
2021/06/07 17:56:07;;;;;;;10.18;6.15;;;;;;;;;;6094459;23;20187;-90
2021/06/07 17:59:12;;;;;;;12.48;5.63;;;;;;;;;;6093035;23;20214;-90
2021/06/07 18:02:18;;;;;;;10.23;6.20;;;;;;;;;;6094962;23;20515;-91
2021/06/07 18:05:25;;;;;;;8.82;6.55;;;;;;;;;;6094829;23;20221;-90
2021/06/07 18:08:30;;;;;;;12.07;6.05;;;;;;;;;;6094230;23;20166;-91
2021/06/07 18:11:34;;;;;;;9.02;6.53;;;;;;;;;;6092723;23;20169;-90
2021/06/07 18:14:39;;;;;;;8.77;6.45;;;;;;;;;;6095408;23;20255;-92
2021/06/07 18:17:45;;;;;;;10.35;6.30;;;;;;;;;;6096379;23;20174;-92
2021/06/07 18:20:52;;;;;;;7.65;5.80;;;;;;;;;;6093947;23;20194;-91
2021/06/07 18:23:57;;;;;;;8.43;6.03;;;;;;;;;;6090546;23;20173;-91
2021/06/07 18:27:01;;;;;;;17.05;6.70;;;;;;;;;;6093103;23;20173;-90
2021/06/07 18:30:09;;;;;;;11.27;6.85;;;;;;;;;;6094898;23;20178;-91
2021/06/07 18:33:14;;;;;;;14.55;7.65;;;;;;;;;;6094971;23;20174;-91
2021/06/07 18:36:20;;;;;;;11.32;7.78;;;;;;;;;;6094598;23;20609;-90
2021/06/07 18:39:25;;;;;;;14.65;8.75;;;;;;;;;;6095904;23;20166;-91
2021/06/07 18:42:30;;;;;;;11.02;6.60;;;;;;;;;;6093716;23;20226;-91
2021/06/07 18:45:35;;;;;;;15.07;7.50;;;;;;;;;;6095137;23;20169;-91
2021/06/07 18:48:40;;;;;;;10.65;7.45;;;;;;;;;;6093209;23;20543;-91
2021/06/07 18:51:46;;;;;;;14.65;8.05;;;;;;;;;;6094862;23;20174;-90
2021/06/07 18:54:51;;;;;;;13.23;7.55;;;;;;;;;;6092105;23;20193;-89
2021/06/07 18:57:56;;;;;;;10.80;7.53;;;;;;;;;;6094066;23;20190;-90
2021/06/07 19:01:03;;;;;;;13.70;9.00;;;;;;;;;;6091577;23;20676;-91
2021/06/07 19:04:08;;;;;;;13.38;8.63;;;;;;;;;;6092399;23;20227;-90
2021/06/07 19:07:15;;;;;;;12.98;8.85;;;;;;;;;;6090884;23;20166;-91
2021/06/07 19:10:26;;;;;;;15.30;9.02;;;;;;;;;;6075858;23;20565;-91
2021/06/07 19:13:33;;;;;;;18.98;9.30;;;;;;;;;;6091570;23;20222;-90
2021/06/07 19:16:39;;;;;;;12.63;8.07;;;;;;;;;;6092410;23;20166;-91
2021/06/07 19:19:43;;;;;;;14.23;10.00;;;;;;;;;;6091529;23;20174;-90
2021/06/07 19:22:50;;;;;;;19.40;9.27;;;;;;;;;;6092022;23;20202;-91
2021/06/07 19:25:55;;;;;;;12.18;9.10;;;;;;;;;;6094320;23;20209;-90
2021/06/07 19:29:04;;;;;;;15.32;10.02;;;;;;;;;;6095511;23;20250;-90
2021/06/07 19:32:09;;;;;;;16.95;10.18;;;;;;;;;;6094683;23;20182;-89
2021/06/07 19:35:14;;;;;;;14.55;9.38;;;;;;;;;;6093195;23;20174;-90
2021/06/07 19:38:20;;;;;;;15.70;9.40;;;;;;;;;;6093970;23;20497;-89
2021/06/07 19:41:25;;;;;;;13.02;9.30;;;;;;;;;;6092726;23;20205;-90
2021/06/07 19:44:31;;;;;;;16.23;10.82;;;;;;;;;;6092731;23;20178;-90
2021/06/07 19:47:38;;;;;;;14.52;9.68;;;;;;;;;;6091374;23;20246;-89
2021/06/07 19:50:44;;;;;;;15.18;10.07;;;;;;;;;;6091598;23;20170;-89
2021/06/07 19:53:50;;;;;;;15.55;10.40;;;;;;;;;;6089804;23;20166;-91
2021/06/07 19:56:57;;;;;;;18.27;10.30;;;;;;;;;;6092023;23;20174;-90
2021/06/07 20:00:05;;;;;;;18.45;10.60;;;;;;;;;;6090286;23;20198;-91
2021/06/07 20:03:18;;;;;;;15.68;11.43;;;;;;;;;;6108745;23;20182;-91
2021/06/07 20:06:22;;;;;;;20.08;11.27;;;;;;;;;;6091975;23;20213;-89
2021/06/07 20:09:29;;;;;;;16.17;10.50;;;;;;;;;;6091452;23;20173;-88
2021/06/07 20:12:34;;;;;;;16.30;10.57;;;;;;;;;;6092235;23;20169;-90
2021/06/07 20:15:40;;;;;;;18.67;10.77;;;;;;;;;;6093039;23;20170;-90
2021/06/07 20:18:45;;;;;;;15.50;11.07;;;;;;;;;;6094768;23;20235;-90
2021/06/07 20:21:50;;;;;;;23.75;11.57;;;;;;;;;;6093599;23;20197;-89
2021/06/07 20:24:57;;;;;;;16.23;11.18;;;;;;;;;;6093383;23;20223;-89
2021/06/07 20:28:02;;;;;;;13.95;9.93;;;;;;;;;;6092817;23;20189;-90
2021/06/07 20:31:06;;;;;;;18.25;10.77;;;;;;;;;;6091094;23;20153;-90
2021/06/07 20:34:13;;;;;;;15.75;10.57;;;;;;;;;;6093008;23;20177;-91
2021/06/07 20:37:20;;;;;;;16.77;10.45;;;;;;;;;;6091967;23;20194;-89
2021/06/07 20:40:28;;;;;;;19.40;11.20;;;;;;;;;;6092532;23;20162;-90
2021/06/07 20:43:33;;;;;;;21.35;11.70;;;;;;;;;;6093745;23;20153;-90
2021/06/07 20:46:38;;;;;;;16.25;11.38;;;;;;;;;;6093352;23;20253;-89
2021/06/07 20:49:42;;;;;;;17.67;11.35;;;;;;;;;;6096338;23;20189;-89
2021/06/07 20:52:51;;;;;;;18.58;11.15;;;;;;;;;;6094462;23;20164;-89
2021/06/07 20:55:57;;;;;;;14.30;10.43;;;;;;;;;;6092759;23;20173;-90
2021/06/07 20:59:02;;;;;;;19.50;11.20;;;;;;;;;;6093249;23;20162;-90
2021/06/07 21:02:07;;;;;;;15.13;10.63;;;;;;;;;;6094803;23;20218;-89
2021/06/07 21:05:12;;;;;;;17.80;10.88;;;;;;;;;;6092075;23;20170;-90
2021/06/07 21:08:17;;;;;;;13.57;10.63;;;;;;;;;;6091231;23;20230;-89
2021/06/07 21:11:23;;;;;;;15.73;10.30;;;;;;;;;;6092365;23;20169;-91
2021/06/07 21:14:28;;;;;;;18.52;10.70;;;;;;;;;;6092266;23;20170;-91
2021/06/07 21:17:33;;;;;;;20.00;11.18;;;;;;;;;;6092067;23;20173;-89
2021/06/07 21:20:38;;;;;;;20.52;11.48;;;;;;;;;;6091828;23;20195;-90
2021/06/07 21:23:42;;;;;;;17.40;11.50;;;;;;;;;;6090509;23;20190;-89
2021/06/07 21:26:49;;;;;;;19.45;11.80;;;;;;;;;;6092725;23;20178;-89
2021/06/07 21:29:54;;;;;;;16.10;10.88;;;;;;;;;;6091355;23;20221;-90
2021/06/07 21:32:58;;;;;;;17.08;10.13;;;;;;;;;;6091202;23;20185;-89
2021/06/07 21:36:03;;;;;;;17.55;10.90;;;;;;;;;;6090262;23;20181;-91
2021/06/07 21:39:07;;;;;;;21.38;12.55;;;;;;;;;;6091956;23;20169;-90
2021/06/07 21:42:14;;;;;;;17.23;11.20;;;;;;;;;;6090751;23;20193;-89
2021/06/07 21:45:18;;;;;;;20.17;11.50;;;;;;;;;;6095448;23;20195;-90
2021/06/07 21:48:30;;;;;;;15.10;10.55;;;;;;;;;;6095127;23;20214;-91
2021/06/07 21:51:37;;;;;;;14.63;10.43;;;;;;;;;;6094563;23;20227;-90
2021/06/07 21:54:42;;;;;;;19.48;9.70;;;;;;;;;;6094818;23;20219;-91
2021/06/07 21:57:48;;;;;;;14.18;9.73;;;;;;;;;;6094057;23;20189;-90
2021/06/07 22:00:53;;;;;;;18.00;10.55;;;;;;;;;;6093597;23;20178;-89
2021/06/07 22:03:58;;;;;;;14.45;10.80;;;;;;;;;;6112678;23;20166;-89
2021/06/07 22:07:02;;;;;;;20.83;11.45;;;;;;;;;;6094392;23;20283;-88
2021/06/07 22:10:08;;;;;;;20.83;11.93;;;;;;;;;;6092372;23;20226;-89
2021/06/07 22:13:14;;;;;;;25.25;14.35;;;;;;;;;;6092421;23;20173;-89
2021/06/07 22:19:42;;;;;;;20.88;11.48;;;;;;;;;;6184387;23;20238;-89
2021/06/07 22:22:48;;;;;;;15.93;9.93;;;;;;;;;;6184838;23;20195;-90
2021/06/07 22:25:53;;;;;;;15.07;10.15;;;;;;;;;;6180585;23;20167;-90
2021/06/07 22:29:00;;;;;;;18.10;10.77;;;;;;;;;;6180539;23;20324;-90
2021/06/07 22:32:05;;;;;;;18.85;12.30;;;;;;;;;;6178751;23;20172;-92
2021/06/07 22:38:34;;;;;;;19.67;11.10;;;;;;;;;;6181453;23;20180;-92
2021/06/07 22:41:39;;;;;;;21.17;12.18;;;;;;;;;;6179458;23;20191;-90
2021/06/07 22:44:46;;;;;;;15.57;11.10;;;;;;;;;;6180517;23;20164;-90
2021/06/07 22:47:51;;;;;;;19.58;11.85;;;;;;;;;;6180415;23;20223;-90
2021/06/07 22:50:56;;;;;;;16.05;11.48;;;;;;;;;;6181878;23;20184;-90
2021/06/07 22:54:01;;;;;;;15.57;10.98;;;;;;;;;;6183746;23;20305;-91
2021/06/07 22:57:07;;;;;;;15.82;11.27;;;;;;;;;;6202072;23;20180;-91
2021/06/07 23:00:19;;;;;;;22.67;11.80;;;;;;;;;;6191553;23;20151;-91
2021/06/07 23:03:24;;;;;;;19.60;11.40;;;;;;;;;;6180418;23;20200;-92
2021/06/07 23:06:29;;;;;;;17.67;11.93;;;;;;;;;;6183845;23;20168;-90
2021/06/07 23:09:33;;;;;;;17.65;12.00;;;;;;;;;;6179278;23;20171;-89
2021/06/07 23:12:37;;;;;;;16.38;11.13;;;;;;;;;;6199901;23;20172;-89
2021/06/07 23:15:44;;;;;;;19.88;11.65;;;;;;;;;;6181338;23;20651;-90
2021/06/07 23:18:48;;;;;;;17.13;11.35;;;;;;;;;;6181435;23;20151;-90
2021/06/07 23:21:55;;;;;;;18.80;12.05;;;;;;;;;;6196820;23;20254;-91
2021/06/07 23:25:03;;;;;;;19.38;12.50;;;;;;;;;;6195961;23;20664;-91
2021/06/07 23:28:08;;;;;;;31.67;13.43;;;;;;;;;;6197702;23;20204;-89
2021/06/07 23:31:14;;;;;;;20.70;11.38;;;;;;;;;;6197269;23;20200;-89
2021/06/07 23:34:19;;;;;;;20.45;12.25;;;;;;;;;;6199215;23;20295;-90
2021/06/07 23:37:23;;;;;;;17.95;11.45;;;;;;;;;;6197165;23;20187;-89
2021/06/07 23:40:28;;;;;;;18.30;11.93;;;;;;;;;;6197430;23;20175;-90
2021/06/07 23:43:33;;;;;;;19.35;12.75;;;;;;;;;;6197428;23;20524;-90
2021/06/07 23:46:39;;;;;;;19.67;12.55;;;;;;;;;;6198562;23;20210;-90
2021/06/07 23:49:43;;;;;;;18.40;12.13;;;;;;;;;;6198543;23;20172;-89
2021/06/07 23:52:51;;;;;;;22.33;12.13;;;;;;;;;;6196145;23;20168;-90
2021/06/07 23:55:57;;;;;;;17.15;13.05;;;;;;;;;;6197363;23;20511;-89
2021/06/07 23:59:17;;;;;;;18.48;12.55;;;;;;;;;;6160573;23;20180;-90
